createdAt,value
2022-09-12T00:01:42.268Z,98810.13
2022-09-12T00:04:11.497Z,98814.34
2022-09-12T00:06:41.582Z,98810.22
2022-09-12T00:09:11.192Z,98809.63
2022-09-12T00:11:40.055Z,98807.34
2022-09-12T00:14:11.971Z,98806.19
2022-09-12T00:16:40.271Z,98810.38
2022-09-12T00:19:09.736Z,98816.75
2022-09-12T00:21:38.586Z,98810.66
2022-09-12T00:24:06.971Z,98809.16
2022-09-12T00:26:35.309Z,98802.16
2022-09-12T00:29:03.599Z,98813.38
2022-09-12T00:31:31.674Z,98810.56
2022-09-12T00:34:01.529Z,98809.50
2022-09-12T00:36:31.613Z,98799.94
2022-09-12T00:38:59.706Z,98809.28
2022-09-12T00:41:29.245Z,98806.16
2022-09-12T00:43:58.348Z,98804.19
2022-09-12T00:46:28.973Z,98800.19
2022-09-12T00:49:00.279Z,98791.19
2022-09-12T00:51:30.463Z,98792.03
2022-09-12T00:54:01.081Z,98798.88
2022-09-12T00:56:29.832Z,98786.31
2022-09-12T00:59:02.354Z,98795.03
2022-09-12T01:01:33.076Z,98795.19
2022-09-12T01:04:03.737Z,98785.31
2022-09-12T01:06:35.621Z,98783.38
2022-09-12T01:09:05.510Z,98780.94
2022-09-12T01:11:35.362Z,98778.63
2022-09-12T01:14:07.323Z,98789.00
2022-09-12T01:16:36.676Z,98776.81
2022-09-12T01:19:12.655Z,98782.59
2022-09-12T01:21:46.694Z,98785.25
2022-09-12T01:24:43.478Z,98782.31
2022-09-12T01:27:27.655Z,98779.31
2022-09-12T01:30:07.050Z,98776.09
2022-09-12T01:32:41.260Z,98773.50
2022-09-12T01:35:16.719Z,98779.84
2022-09-12T01:37:48.876Z,98770.97
2022-09-12T01:40:23.262Z,98773.09
2022-09-12T01:42:54.663Z,98776.47
2022-09-12T01:45:25.620Z,98782.38
2022-09-12T01:47:59.985Z,98771.44
2022-09-12T01:50:31.083Z,98774.81
2022-09-12T01:53:01.015Z,98776.00
2022-09-12T01:55:33.536Z,98776.00
2022-09-12T01:58:05.484Z,98777.34
2022-09-12T02:00:35.422Z,98770.13
2022-09-12T02:03:10.283Z,98765.53
2022-09-12T02:05:42.144Z,98758.47
2022-09-12T02:08:14.898Z,98768.94
2022-09-12T02:10:44.999Z,98765.09
2022-09-12T02:13:16.047Z,98771.50
2022-09-12T02:15:45.555Z,98770.22
2022-09-12T02:18:17.998Z,98770.00
2022-09-12T02:20:49.137Z,98761.78
2022-09-12T02:23:20.497Z,98766.31
2022-09-12T02:25:49.888Z,98759.91
2022-09-12T02:28:19.763Z,98756.81
2022-09-12T02:30:51.759Z,98751.41
2022-09-12T02:33:26.596Z,98753.50
2022-09-12T02:35:59.445Z,98738.75
2022-09-12T02:38:29.186Z,98742.78
2022-09-12T02:40:57.604Z,98751.47
2022-09-12T02:43:25.647Z,98748.41
2022-09-12T02:45:54.076Z,98747.59
2022-09-12T02:48:25.188Z,98746.38
2022-09-12T02:50:53.229Z,98738.50
2022-09-12T02:53:21.438Z,98734.03
2022-09-12T02:55:49.575Z,98734.53
2022-09-12T02:58:19.151Z,98722.50
2022-09-12T03:00:50.279Z,98735.16
2022-09-12T03:03:30.920Z,98739.69
2022-09-12T03:06:00.035Z,98744.03
2022-09-12T03:08:38.762Z,98743.91
2022-09-12T03:11:23.792Z,98748.53
2022-09-12T03:13:58.772Z,98742.81
2022-09-12T03:16:29.171Z,98736.16
2022-09-12T03:19:04.256Z,98749.56
2022-09-12T03:21:34.860Z,98744.53
2022-09-12T03:24:14.700Z,98741.59
2022-09-12T03:26:45.535Z,98746.09
2022-09-12T03:29:15.022Z,98738.50
2022-09-12T03:31:49.650Z,98744.66
2022-09-12T03:34:19.403Z,98747.06
2022-09-12T03:36:47.617Z,98743.28
2022-09-12T03:39:15.982Z,98749.13
2022-09-12T03:41:43.993Z,98745.97
2022-09-12T03:44:11.951Z,98740.31
2022-09-12T03:46:39.898Z,98737.38
2022-09-12T03:49:07.839Z,98738.66
2022-09-12T03:51:37.187Z,98741.50
2022-09-12T03:54:05.602Z,98738.25
2022-09-12T03:56:33.540Z,98748.31
2022-09-12T03:59:01.552Z,98739.34
2022-09-12T04:01:29.594Z,98746.13
2022-09-12T04:03:57.695Z,98745.91
2022-09-12T04:06:25.687Z,98744.97
2022-09-12T04:08:55.450Z,98736.78
2022-09-12T04:11:23.797Z,98744.47
2022-09-12T04:13:51.918Z,98737.25
2022-09-12T04:16:20.180Z,98747.84
2022-09-12T04:18:50.465Z,98746.19
2022-09-12T04:21:20.093Z,98747.81
2022-09-12T04:23:48.139Z,98745.84
2022-09-12T04:26:18.230Z,98739.44
2022-09-12T04:28:47.076Z,98744.84
2022-09-12T04:31:19.977Z,98751.59
2022-09-12T04:33:48.187Z,98747.22
2022-09-12T04:36:17.561Z,98750.38
2022-09-12T04:38:48.282Z,98745.59
2022-09-12T04:41:19.000Z,98753.34
2022-09-12T04:43:47.361Z,98751.19
2022-09-12T04:46:19.769Z,98752.00
2022-09-12T04:48:48.236Z,98747.84
2022-09-12T04:51:20.881Z,98747.59
2022-09-12T04:53:49.439Z,98742.53
2022-09-12T04:56:19.231Z,98737.56
2022-09-12T04:58:47.562Z,98732.19
2022-09-12T05:01:16.972Z,98732.84
2022-09-12T05:03:46.257Z,98726.31
2022-09-12T05:06:15.251Z,98725.25
2022-09-12T05:08:43.586Z,98719.72
2022-09-12T05:11:15.345Z,98729.31
2022-09-12T05:13:44.744Z,98720.25
2022-09-12T05:16:15.197Z,98730.28
2022-09-12T05:18:44.175Z,98736.94
2022-09-12T05:21:13.284Z,98737.47
2022-09-12T05:23:41.571Z,98740.94
2022-09-12T05:26:12.203Z,98740.16
2022-09-12T05:28:40.929Z,98740.03
2022-09-12T05:31:12.399Z,98734.66
2022-09-12T05:33:41.627Z,98743.63
2022-09-12T05:36:11.620Z,98743.16
2022-09-12T05:38:40.029Z,98743.00
2022-09-12T05:41:14.641Z,98739.19
2022-09-12T05:43:45.838Z,98734.19
2022-09-12T05:46:16.699Z,98736.75
2022-09-12T05:48:45.683Z,98746.31
2022-09-12T05:51:17.470Z,98741.03
2022-09-12T05:53:46.214Z,98731.38
2022-09-12T05:56:15.049Z,98739.50
2022-09-12T05:58:44.049Z,98716.81
2022-09-12T06:01:13.517Z,98558.69
2022-09-12T06:03:44.453Z,98523.22
2022-09-12T06:06:13.648Z,98524.91
2022-09-12T06:08:42.758Z,98524.72
2022-09-12T06:11:11.739Z,98555.16
2022-09-12T06:13:40.976Z,98547.25
2022-09-12T06:16:10.407Z,98584.34
2022-09-12T06:18:41.639Z,98611.31
2022-09-12T06:21:11.748Z,98642.41
2022-09-12T06:23:40.089Z,98661.63
2022-09-12T06:26:09.048Z,98683.91
2022-09-12T06:28:38.101Z,98687.78
2022-09-12T06:31:06.916Z,98695.28
2022-09-12T06:33:35.486Z,98690.09
2022-09-12T06:36:10.227Z,98677.28
2022-09-12T06:38:41.713Z,98677.97
2022-09-12T06:41:11.367Z,98671.25
2022-09-12T06:43:42.475Z,98672.72
2022-09-12T06:46:11.273Z,98670.25
2022-09-12T06:48:41.952Z,98685.09
2022-09-12T06:51:11.668Z,98690.50
2022-09-12T06:53:41.562Z,98701.38
2022-09-12T06:56:11.176Z,98692.56
2022-09-12T06:58:39.741Z,98692.94
2022-09-12T07:01:09.464Z,98686.31
2022-09-12T07:03:38.654Z,98681.31
2022-09-12T07:06:07.600Z,98675.34
2022-09-12T07:08:37.042Z,98675.22
2022-09-12T07:11:14.330Z,98668.50
2022-09-12T07:13:43.421Z,98669.06
2022-09-12T07:16:16.014Z,98678.66
2022-09-12T07:18:51.378Z,98662.69
2022-09-12T07:21:19.821Z,98658.97
2022-09-12T07:23:48.040Z,98665.28
2022-09-12T07:26:17.923Z,98653.50
2022-09-12T07:28:45.987Z,98660.09
2022-09-12T07:31:16.333Z,98655.63
2022-09-12T07:33:44.969Z,98667.16
2022-09-12T07:36:14.138Z,98647.41
2022-09-12T07:38:42.466Z,98647.28
2022-09-12T07:41:13.903Z,98638.56
2022-09-12T07:43:43.327Z,98636.75
2022-09-12T07:46:11.680Z,98633.38
2022-09-12T07:48:40.935Z,98631.16
2022-09-12T07:51:10.185Z,98636.38
2022-09-12T07:53:39.132Z,98634.22
2022-09-12T07:56:08.229Z,98628.06
2022-09-12T07:58:40.348Z,98628.91
2022-09-12T08:01:10.837Z,98631.47
2022-09-12T08:03:38.876Z,98633.41
2022-09-12T08:06:07.301Z,98622.44
2022-09-12T08:08:35.423Z,98623.91
2022-09-12T08:11:05.913Z,98610.19
2022-09-12T08:13:34.781Z,98601.22
2022-09-12T08:16:04.019Z,98603.44
2022-09-12T08:18:33.790Z,98595.69
2022-09-12T08:21:02.446Z,98580.41
2022-09-12T08:23:33.519Z,98588.22
2022-09-12T08:26:05.919Z,98590.38
2022-09-12T08:28:35.572Z,98594.03
2022-09-12T08:31:04.058Z,98597.44
2022-09-12T08:33:34.065Z,98593.19
2022-09-12T08:36:06.369Z,98593.41
2022-09-12T08:38:34.509Z,98592.09
2022-09-12T08:41:05.766Z,98581.19
2022-09-12T08:43:41.515Z,98574.53
2022-09-12T08:46:13.062Z,98571.78
2022-09-12T08:48:43.847Z,98570.69
2022-09-12T08:51:14.357Z,98555.66
2022-09-12T08:53:43.555Z,98543.28
2022-09-12T08:56:12.769Z,98533.75
2022-09-12T08:58:42.101Z,98545.75
2022-09-12T09:01:15.572Z,98541.34
2022-09-12T09:03:54.714Z,98536.06
2022-09-12T09:06:28.667Z,98533.03
2022-09-12T09:09:04.872Z,98534.50
2022-09-12T09:11:40.072Z,98523.16
2022-09-12T09:14:45.364Z,98541.97
2022-09-12T09:17:16.347Z,98532.09
2022-09-12T09:19:50.869Z,98524.97
2022-09-12T09:22:27.086Z,98537.19
2022-09-12T09:25:00.035Z,98525.56
2022-09-12T09:27:40.398Z,98526.03
2022-09-12T09:30:15.331Z,98530.91
2022-09-12T09:32:44.164Z,98519.91
2022-09-12T09:35:19.493Z,98519.31
2022-09-12T09:37:58.607Z,98520.00
2022-09-12T09:40:30.600Z,98518.16
2022-09-12T09:43:02.157Z,98514.59
2022-09-12T09:45:30.248Z,98518.63
2022-09-12T09:47:59.179Z,98513.06
2022-09-12T09:50:28.651Z,98507.81
2022-09-12T09:52:59.153Z,98502.94
2022-09-12T09:55:29.534Z,98510.81
2022-09-12T09:57:57.518Z,98504.59
2022-09-12T10:00:30.581Z,98508.09
2022-09-12T10:03:11.316Z,98515.59
2022-09-12T10:05:47.944Z,98501.81
2022-09-12T10:08:20.968Z,98508.81
2022-09-12T10:10:56.102Z,98514.19
2022-09-12T10:13:26.216Z,98503.81
2022-09-12T10:15:58.543Z,98505.75
2022-09-12T10:18:37.019Z,98495.13
2022-09-12T10:21:16.315Z,98487.69
2022-09-12T10:23:44.795Z,98486.69
2022-09-12T10:26:14.010Z,98494.75
2022-09-12T10:28:43.332Z,98488.00
2022-09-12T10:31:15.678Z,98489.84
2022-09-12T10:33:52.609Z,98493.94
2022-09-12T10:36:23.560Z,98490.38
2022-09-12T10:38:52.597Z,98477.88
2022-09-12T10:41:21.797Z,98485.13
2022-09-12T10:43:50.232Z,98480.47
2022-09-12T10:46:23.208Z,98471.94
2022-09-12T10:48:52.059Z,98480.63
2022-09-12T10:51:29.555Z,98474.50
2022-09-12T10:54:02.404Z,98471.09
2022-09-12T10:56:32.558Z,98468.03
2022-09-12T10:59:09.343Z,98474.63
2022-09-12T11:01:40.181Z,98463.66
2022-09-12T11:04:20.582Z,98458.44
2022-09-12T11:06:56.187Z,98449.44
2022-09-12T11:09:28.575Z,98448.84
2022-09-12T11:12:03.185Z,98448.03
2022-09-12T11:14:38.792Z,98444.38
2022-09-12T11:17:16.649Z,98446.59
2022-09-12T11:19:51.349Z,98436.28
2022-09-12T11:22:27.701Z,98448.25
2022-09-12T11:25:15.857Z,98444.97
2022-09-12T11:27:50.646Z,98439.69
2022-09-12T11:30:19.162Z,98441.41
2022-09-12T11:32:53.292Z,98437.00
2022-09-12T11:35:25.678Z,98437.59
2022-09-12T11:38:12.648Z,98439.88
2022-09-12T11:40:44.228Z,98432.31
2022-09-12T11:43:24.623Z,98434.00
2022-09-12T11:45:53.561Z,98424.41
2022-09-12T11:48:28.439Z,98425.78
2022-09-12T11:50:56.778Z,98418.59
2022-09-12T11:53:30.260Z,98422.84
2022-09-12T11:56:01.879Z,98415.53
2022-09-12T11:58:30.231Z,98421.88
2022-09-12T12:01:00.172Z,98416.72
2022-09-12T12:03:33.102Z,98419.41
2022-09-12T12:06:04.097Z,98419.72
2022-09-12T12:08:34.161Z,98415.34
2022-09-12T12:11:02.967Z,98421.53
2022-09-12T12:13:32.721Z,98408.41
2022-09-12T12:16:04.141Z,98408.66
2022-09-12T12:18:33.064Z,98409.97
2022-09-12T12:21:19.923Z,98404.09
2022-09-12T12:24:03.608Z,98401.00
2022-09-12T12:26:45.615Z,98397.22
2022-09-12T12:29:14.208Z,98397.09
2022-09-12T12:32:08.697Z,98385.88
2022-09-12T12:34:37.737Z,98391.47
2022-09-12T12:37:20.579Z,98385.75
2022-09-12T12:40:02.719Z,98393.00
2022-09-12T12:43:06.001Z,98389.16
2022-09-12T12:45:48.855Z,98376.31
2022-09-12T12:48:20.284Z,98378.44
2022-09-12T12:50:48.725Z,98375.00
2022-09-12T12:53:20.097Z,98373.59
2022-09-12T12:55:50.190Z,98363.94
2022-09-12T12:58:28.347Z,98364.22
2022-09-12T13:01:05.770Z,98365.44
2022-09-12T13:03:35.515Z,98360.03
2022-09-12T13:06:04.623Z,98358.59
2022-09-12T13:08:33.985Z,98353.81
2022-09-12T13:11:04.101Z,98348.50
2022-09-12T13:13:35.263Z,98354.78
2022-09-12T13:16:03.632Z,98353.66
2022-09-12T13:18:40.801Z,98356.91
2022-09-12T13:21:11.767Z,98347.41
2022-09-12T13:23:39.892Z,98341.59
2022-09-12T13:26:12.264Z,98346.25
2022-09-12T13:28:40.407Z,98326.84
2022-09-12T13:31:11.807Z,98331.16
2022-09-12T13:33:42.422Z,98328.06
2022-09-12T13:36:28.061Z,98325.03
2022-09-12T13:39:08.578Z,98319.84
2022-09-12T13:41:41.151Z,98321.13
2022-09-12T13:44:10.885Z,98321.38
2022-09-12T13:46:39.001Z,98318.34
2022-09-12T13:49:17.386Z,98323.91
2022-09-12T13:51:45.406Z,98318.34
2022-09-12T13:54:22.503Z,98315.91
2022-09-12T13:56:52.418Z,98309.56
2022-09-12T13:59:20.639Z,98319.97
2022-09-12T14:01:49.206Z,98311.53
2022-09-12T14:04:36.063Z,98311.81
2022-09-12T14:07:11.247Z,98308.16
2022-09-12T14:09:41.743Z,98298.06
2022-09-12T14:12:22.115Z,98299.38
2022-09-12T14:14:51.682Z,98299.84
2022-09-12T14:17:23.665Z,98294.63
2022-09-12T14:19:52.591Z,98295.00
2022-09-12T14:22:23.454Z,98290.28
2022-09-12T14:24:55.850Z,98290.88
2022-09-12T14:27:25.680Z,98295.97
2022-09-12T14:29:57.178Z,98289.41
2022-09-12T14:32:25.620Z,98286.84
2022-09-12T14:35:05.488Z,98287.03
2022-09-12T14:37:33.504Z,98281.94
2022-09-12T14:40:03.608Z,98284.75
2022-09-12T14:42:32.554Z,98284.09
2022-09-12T14:45:03.527Z,98274.66
2022-09-12T14:47:38.418Z,98278.34
2022-09-12T14:50:15.950Z,98281.94
2022-09-12T14:52:44.056Z,98280.78
2022-09-12T14:55:28.526Z,98273.03
2022-09-12T14:58:08.263Z,98273.03
2022-09-12T15:00:36.541Z,98262.78
2022-09-12T15:03:21.137Z,98257.41
2022-09-12T15:05:49.676Z,98259.03
2022-09-12T15:08:19.935Z,98257.59
2022-09-12T15:10:49.489Z,98252.69
2022-09-12T15:13:19.346Z,98250.25
2022-09-12T15:15:48.606Z,98255.16
2022-09-12T15:18:16.999Z,98256.09
2022-09-12T15:20:46.135Z,98250.94
2022-09-12T15:23:19.991Z,98247.81
2022-09-12T15:25:50.779Z,98246.53
2022-09-12T15:28:21.589Z,98253.66
2022-09-12T15:30:51.245Z,98244.91
2022-09-12T15:33:20.902Z,98233.34
2022-09-12T15:35:48.871Z,98234.97
2022-09-12T15:38:17.200Z,98238.88
2022-09-12T15:40:46.439Z,98235.63
2022-09-12T15:43:15.846Z,98226.69
2022-09-12T15:45:44.859Z,98232.22
2022-09-12T15:48:15.195Z,98225.41
2022-09-12T15:50:43.487Z,98220.53
2022-09-12T15:53:14.943Z,98209.97
2022-09-12T15:55:43.595Z,98203.78
2022-09-12T15:58:11.765Z,98205.41
2022-09-12T16:00:41.171Z,98206.56
2022-09-12T16:03:18.634Z,98215.66
2022-09-12T16:05:46.693Z,98216.44
2022-09-12T16:08:15.334Z,98209.13
2022-09-12T16:10:44.490Z,98201.66
2022-09-12T16:13:12.597Z,98211.41
2022-09-12T16:15:41.962Z,98204.88
2022-09-12T16:18:09.963Z,98195.00
2022-09-12T16:20:40.156Z,98191.75
2022-09-12T16:23:08.275Z,98187.63
2022-09-12T16:25:37.498Z,98194.91
2022-09-12T16:28:05.710Z,98191.84
2022-09-12T16:30:34.002Z,98185.81
2022-09-12T16:33:03.434Z,98191.00
2022-09-12T16:35:32.167Z,98200.38
2022-09-12T16:38:00.326Z,98191.38
2022-09-12T16:40:31.058Z,98184.28
2022-09-12T16:42:59.061Z,98179.81
2022-09-12T16:45:27.063Z,98174.94
2022-09-12T16:47:55.496Z,98176.63
2022-09-12T16:50:25.097Z,98172.31
2022-09-12T16:52:53.082Z,98176.69
2022-09-12T16:55:22.252Z,98162.66
2022-09-12T16:57:50.566Z,98171.75
2022-09-12T17:00:18.689Z,98169.13
2022-09-12T17:02:47.323Z,98170.63
2022-09-12T17:05:15.810Z,98159.56
2022-09-12T17:07:47.516Z,98183.09
2022-09-12T17:10:15.699Z,98178.88
2022-09-12T17:12:43.662Z,98179.59
2022-09-12T17:15:11.706Z,98187.34
2022-09-12T17:17:39.695Z,98179.16
2022-09-12T17:20:07.936Z,98179.00
2022-09-12T17:22:38.205Z,98179.72
2022-09-12T17:25:08.451Z,98176.06
2022-09-12T17:27:36.535Z,98180.66
2022-09-12T17:30:07.615Z,98180.13
2022-09-12T17:32:35.646Z,98178.50
2022-09-12T17:35:03.843Z,98177.59
2022-09-12T17:37:33.629Z,98185.69
2022-09-12T17:40:02.183Z,98175.59
2022-09-12T17:42:31.597Z,98174.91
2022-09-12T17:44:59.659Z,98183.34
2022-09-12T17:47:30.424Z,98177.94
2022-09-12T17:50:27.384Z,98181.91
2022-09-12T17:52:47.146Z,98182.59
2022-09-12T17:55:15.392Z,98189.44
2022-09-12T17:57:47.085Z,98189.94
2022-09-12T18:00:15.358Z,98192.41
2022-09-12T18:02:43.033Z,98188.63
2022-09-12T18:05:15.170Z,98189.84
2022-09-12T18:07:44.277Z,98190.66
2022-09-12T18:10:12.379Z,98196.97
2022-09-12T18:12:40.779Z,98193.56
2022-09-12T18:15:12.503Z,98196.19
2022-09-12T18:17:40.855Z,98197.22
2022-09-12T18:20:09.444Z,98198.81
2022-09-12T18:22:37.566Z,98196.91
2022-09-12T18:25:06.011Z,98192.38
2022-09-12T18:27:34.006Z,98183.25
2022-09-12T18:30:20.685Z,98186.56
2022-09-12T18:32:50.916Z,98188.94
2022-09-12T18:35:18.962Z,98189.81
2022-09-12T18:37:46.922Z,98175.84
2022-09-12T18:40:15.586Z,98166.22
2022-09-12T18:42:46.028Z,98177.28
2022-09-12T18:45:14.152Z,98183.00
2022-09-12T18:47:44.679Z,98184.47
2022-09-12T18:50:14.140Z,98184.03
2022-09-12T18:52:42.364Z,98184.81
2022-09-12T18:55:11.047Z,98189.34
2022-09-12T18:57:41.032Z,98195.16
2022-09-12T19:00:12.481Z,98193.09
2022-09-12T19:02:40.731Z,98189.69
2022-09-12T19:05:08.967Z,98181.44
2022-09-12T19:07:38.324Z,98188.63
2022-09-12T19:10:06.741Z,98193.69
2022-09-12T19:12:34.743Z,98207.66
2022-09-12T19:15:03.880Z,98201.50
2022-09-12T19:17:31.877Z,98200.34
2022-09-12T19:19:59.877Z,98200.06
2022-09-12T19:22:28.182Z,98213.81
2022-09-12T19:24:57.518Z,98203.72
2022-09-12T19:27:25.550Z,98196.03
2022-09-12T19:29:53.535Z,98197.97
2022-09-12T19:32:21.506Z,98188.19
2022-09-12T19:34:49.470Z,98190.38
2022-09-12T19:37:18.006Z,98193.44
2022-09-12T19:39:46.211Z,98186.66
2022-09-12T19:42:15.613Z,98168.41
2022-09-12T19:44:43.607Z,98206.56
2022-09-12T19:47:11.587Z,98207.97
2022-09-12T19:49:41.938Z,98205.50
2022-09-12T19:52:09.935Z,98202.22
2022-09-12T19:54:38.142Z,98209.56
2022-09-12T19:57:06.108Z,98195.94
2022-09-12T19:59:35.656Z,98195.41
2022-09-12T20:02:03.934Z,98194.56
2022-09-12T20:04:32.970Z,98192.38
2022-09-12T20:07:00.961Z,98211.75
2022-09-12T20:09:28.975Z,98203.00
2022-09-12T20:11:56.963Z,98214.72
2022-09-12T20:14:24.990Z,98209.78
2022-09-12T20:16:54.355Z,98206.81
2022-09-12T20:19:22.585Z,98205.69
2022-09-12T20:21:50.580Z,98204.59
2022-09-12T20:24:18.556Z,98198.03
2022-09-12T20:26:49.203Z,98208.09
2022-09-12T20:29:17.203Z,98203.47
2022-09-12T20:31:45.208Z,98198.03
2022-09-12T20:34:16.600Z,98191.16
2022-09-12T20:36:44.979Z,98194.41
2022-09-12T20:39:14.587Z,98187.34
2022-09-12T20:41:42.685Z,98207.16
2022-09-12T20:44:10.938Z,98200.94
2022-09-12T20:46:41.710Z,98198.88
2022-09-12T20:49:09.966Z,98197.56
2022-09-12T20:51:39.465Z,98196.41
2022-09-12T20:54:08.081Z,98193.69
2022-09-12T20:56:37.139Z,98208.44
2022-09-12T20:59:07.515Z,98207.03
2022-09-12T21:01:35.579Z,98212.66
2022-09-12T21:04:03.845Z,98202.09
2022-09-12T21:06:32.291Z,98203.47
2022-09-12T21:09:01.617Z,98204.84
2022-09-12T21:11:29.724Z,98197.41
2022-09-12T21:13:57.929Z,98197.44
2022-09-12T21:16:26.243Z,98208.59
2022-09-12T21:18:55.097Z,98200.59
2022-09-12T21:21:23.098Z,98215.88
2022-09-12T21:23:51.624Z,98216.66
2022-09-12T21:26:21.004Z,98208.25
2022-09-12T21:28:49.379Z,98202.63
2022-09-12T21:31:19.890Z,98196.19
2022-09-12T21:33:51.315Z,98209.00
2022-09-12T21:36:19.300Z,98209.53
2022-09-12T21:38:47.264Z,98209.84
2022-09-12T21:41:18.315Z,98193.41
2022-09-12T21:43:47.887Z,98187.63
2022-09-12T21:46:18.518Z,98190.81
2022-09-12T21:48:46.536Z,98185.38
2022-09-12T21:51:14.515Z,98189.81
2022-09-12T21:53:42.557Z,98191.13
2022-09-12T21:56:10.603Z,98194.16
2022-09-12T21:58:39.191Z,98187.31
2022-09-12T22:02:38.579Z,98190.91
2022-09-12T22:05:07.616Z,98185.28
2022-09-12T22:07:36.534Z,98168.75
2022-09-12T22:10:05.756Z,98171.94
2022-09-12T22:12:34.290Z,98163.69
2022-09-12T22:15:17.433Z,98159.78
2022-09-12T22:17:52.627Z,98152.19
2022-09-12T22:20:20.872Z,98155.00
2022-09-12T22:23:06.634Z,98162.44
2022-09-12T22:25:34.932Z,98166.38
2022-09-12T22:28:03.519Z,98166.56
2022-09-12T22:30:32.339Z,98160.75
2022-09-12T22:33:01.934Z,98162.97
2022-09-12T22:35:30.866Z,98164.06
2022-09-12T22:38:01.533Z,98165.94
2022-09-12T22:40:29.766Z,98178.06
2022-09-12T22:42:58.388Z,98172.94
2022-09-12T22:45:28.992Z,98171.38
2022-09-12T22:48:00.563Z,98176.78
2022-09-12T22:50:30.966Z,98174.56
2022-09-12T22:52:59.286Z,98151.19
2022-09-12T22:55:27.788Z,98159.63
2022-09-12T22:57:56.325Z,98155.84
2022-09-12T23:00:27.648Z,98144.75
2022-09-12T23:02:55.996Z,98154.81
2022-09-12T23:05:24.243Z,98157.78
2022-09-12T23:07:54.395Z,98162.66
2022-09-12T23:10:23.160Z,98157.25
2022-09-12T23:12:51.349Z,98154.56
2022-09-12T23:15:19.752Z,98154.69
2022-09-12T23:17:48.001Z,98172.22
2022-09-12T23:20:16.320Z,98189.59
2022-09-12T23:22:44.546Z,98194.78
2022-09-12T23:25:14.819Z,98174.47
2022-09-12T23:27:43.256Z,98158.03
2022-09-12T23:30:13.840Z,98139.78
2022-09-12T23:32:42.090Z,98138.88
2022-09-12T23:35:10.455Z,98134.91
2022-09-12T23:37:38.643Z,98136.50
2022-09-12T23:40:08.814Z,98121.06
2022-09-12T23:42:38.460Z,98130.34
2022-09-12T23:45:07.798Z,98119.78
2022-09-12T23:47:36.035Z,98129.59
2022-09-12T23:50:05.066Z,98138.75
2022-09-12T23:52:36.032Z,98134.53
2022-09-12T23:55:04.502Z,98139.88
2022-09-12T23:57:33.118Z,98140.84
